Time;durP1;ratioP1;P1;durP2;ratioP2;P2;SDS_P1;SDS_P2;PMS_P1;PMS_P2;Temp;Humidity;BMP_temperature;BMP_pressure;BME280_temperature;BME280_humidity;BME280_pressure;Samples;Min_cycle;Max_cycle;Signal;HPM_P1;HPM_P2
2023/12/27 00:01:51;;;;;;;;;;;19.60;45.70;;;;;;5128522;28;19926;-67
2023/12/27 00:04:18;;;;;;;;;;;19.50;45.80;;;;;;5094407;28;20299;-66
2023/12/27 00:06:44;;;;;;;;;;;19.50;46.00;;;;;;5128771;28;19976;-67
2023/12/27 00:09:09;;;;;;;;;;;19.40;46.00;;;;;;5094403;28;19927;-67
2023/12/27 00:11:35;;;;;;;;;;;19.30;46.10;;;;;;5094691;28;19923;-67
2023/12/27 00:14:00;;;;;;;;;;;19.20;46.20;;;;;;5094649;28;19919;-67
2023/12/27 00:16:26;;;;;;;;;;;19.10;46.40;;;;;;5094751;28;20286;-66
2023/12/27 00:18:51;;;;;;;;;;;19.00;46.50;;;;;;5094199;28;19946;-67
2023/12/27 00:21:17;;;;;;;;;;;19.00;46.70;;;;;;5094334;28;19920;-67
2023/12/27 00:23:42;;;;;;;;;;;18.90;46.80;;;;;;5128633;28;20317;-67
2023/12/27 00:26:08;;;;;;;;;;;18.80;46.90;;;;;;5094289;28;19920;-67
2023/12/27 00:28:34;;;;;;;;;;;18.70;47.00;;;;;;5112342;28;19924;-67
2023/12/27 00:30:59;;;;;;;;;;;18.70;47.10;;;;;;5112706;28;19927;-67
2023/12/27 00:33:25;;;;;;;;;;;18.60;47.30;;;;;;5112530;28;20435;-67
2023/12/27 00:35:50;;;;;;;;;;;18.50;47.30;;;;;;5094159;28;20153;-67
2023/12/27 00:38:16;;;;;;;;;;;18.50;47.50;;;;;;5094391;28;19920;-67
2023/12/27 00:40:41;;;;;;;;;;;18.40;47.50;;;;;;5128363;27;19980;-67
2023/12/27 00:43:07;;;;;;;;;;;18.30;47.60;;;;;;5095734;28;19964;-67
2023/12/27 00:45:32;;;;;;;;;;;18.30;47.80;;;;;;5095984;28;19920;-67
2023/12/27 00:47:58;;;;;;;;;;;18.20;47.90;;;;;;5096174;28;20379;-67
2023/12/27 00:50:23;;;;;;;;;;;18.10;48.00;;;;;;5094695;28;20420;-68
2023/12/27 00:52:49;;;;;;;;;;;18.10;48.10;;;;;;5094751;28;19924;-67
2023/12/27 00:55:14;;;;;;;;;;;18.00;48.20;;;;;;5095528;28;19920;-68
2023/12/27 00:57:40;;;;;;;;;;;18.00;48.30;;;;;;5094394;28;19959;-67
2023/12/27 01:00:06;;;;;;;;;;;17.90;48.30;;;;;;5128619;27;20355;-67
2023/12/27 01:02:31;;;;;;;;;;;17.90;48.50;;;;;;5094547;28;20274;-67
2023/12/27 01:04:57;;;;;;;;;;;17.80;48.50;;;;;;5094148;28;19919;-67
2023/12/27 01:07:22;;;;;;;;;;;17.80;48.60;;;;;;5095520;28;19927;-66
2023/12/27 01:09:48;;;;;;;;;;;17.70;48.60;;;;;;5094087;28;19920;-67
2023/12/27 01:12:14;;;;;;;;;;;17.70;48.70;;;;;;5095371;28;19920;-67
2023/12/27 01:14:42;;;;;;;;;;;17.70;49.60;;;;;;5095228;28;19920;-67
2023/12/27 01:17:11;;;;;;;;;;;17.60;48.90;;;;;;5093939;28;19920;-67
2023/12/27 01:19:39;;;;;;;;;;;17.50;48.90;;;;;;5095294;28;19920;-67
2023/12/27 01:22:05;;;;;;;;;;;17.50;49.00;;;;;;5093836;28;19924;-67
2023/12/27 01:24:30;;;;;;;;;;;17.70;49.10;;;;;;5094171;28;20283;-67
2023/12/27 01:26:56;;;;;;;;;;;18.00;48.40;;;;;;5094228;28;20256;-67
2023/12/27 01:29:22;;;;;;;;;;;18.30;48.00;;;;;;5127768;27;20378;-66
2023/12/27 01:31:47;;;;;;;;;;;18.70;47.30;;;;;;5093620;28;19959;-67
2023/12/27 01:34:13;;;;;;;;;;;19.10;46.40;;;;;;5093933;28;19981;-67
2023/12/27 01:36:38;;;;;;;;;;;19.60;45.50;;;;;;5128200;27;20424;-67
2023/12/27 01:39:07;;;;;;;;;;;20.20;44.60;;;;;;5093564;28;20416;-67
2023/12/27 01:41:32;;;;;;;;;;;20.80;43.60;;;;;;5094649;28;19970;-67
2023/12/27 01:43:58;;;;;;;;;;;21.40;42.60;;;;;;5093643;28;19920;-67
2023/12/27 01:46:27;;;;;;;;;;;22.00;41.40;;;;;;5093323;28;19920;-68
2023/12/27 01:48:53;;;;;;;;;;;22.50;40.50;;;;;;5093720;28;19920;-67
2023/12/27 01:51:19;;;;;;;;;;;23.10;39.70;;;;;;5094211;28;19924;-67
2023/12/27 01:53:44;;;;;;;;;;;23.50;39.00;;;;;;5093257;28;20375;-66
2023/12/27 01:56:10;;;;;;;;;;;23.90;38.40;;;;;;5093504;28;19969;-68
2023/12/27 01:58:36;;;;;;;;;;;24.20;37.80;;;;;;5093092;28;19981;-66
2023/12/27 02:01:01;;;;;;;;;;;24.50;37.50;;;;;;5092980;28;19928;-66
2023/12/27 02:03:30;;;;;;;;;;;24.60;37.10;;;;;;5093330;28;20015;-67
2023/12/27 02:05:56;;;;;;;;;;;24.70;37.00;;;;;;5093249;28;20497;-65
2023/12/27 02:08:22;;;;;;;;;;;24.70;37.10;;;;;;5092875;28;19920;-67
2023/12/27 02:10:47;;;;;;;;;;;24.60;37.10;;;;;;5094185;28;20022;-65
2023/12/27 02:13:13;;;;;;;;;;;24.50;37.20;;;;;;5093070;28;19920;-65
2023/12/27 02:15:38;;;;;;;;;;;24.30;37.40;;;;;;5092735;28;20116;-67
2023/12/27 02:18:05;;;;;;;;;;;24.20;37.70;;;;;;5094047;28;19927;-65
2023/12/27 02:20:31;;;;;;;;;;;24.00;37.90;;;;;;5092842;28;19924;-66
2023/12/27 02:22:58;;;;;;;;;;;23.80;38.10;;;;;;5092931;28;19969;-65
2023/12/27 02:25:24;;;;;;;;;;;23.60;38.40;;;;;;5092637;28;20341;-67
2023/12/27 02:27:49;;;;;;;;;;;23.50;38.70;;;;;;5092761;28;19928;-65
2023/12/27 02:30:17;;;;;;;;;;;23.30;38.90;;;;;;5092728;28;19970;-65
2023/12/27 02:32:43;;;;;;;;;;;23.10;39.10;;;;;;5093871;28;19920;-67
2023/12/27 02:35:09;;;;;;;;;;;22.90;39.40;;;;;;5092445;28;19924;-65
2023/12/27 02:37:34;;;;;;;;;;;22.70;39.60;;;;;;5093782;28;19920;-65
2023/12/27 02:40:03;;;;;;;;;;;22.60;39.90;;;;;;5092086;28;20410;-65
2023/12/27 02:42:28;;;;;;;;;;;22.40;40.10;;;;;;5092485;28;20439;-65
2023/12/27 02:44:54;;;;;;;;;;;22.20;41.10;;;;;;5126507;27;19967;-67
2023/12/27 02:47:19;;;;;;;;;;;22.10;40.60;;;;;;5092515;28;20279;-65
2023/12/27 02:49:45;;;;;;;;;;;21.90;40.80;;;;;;5092363;28;20435;-65
2023/12/27 02:52:10;;;;;;;;;;;21.70;41.00;;;;;;5092237;28;19927;-66
2023/12/27 02:54:36;;;;;;;;;;;21.60;41.20;;;;;;5092472;28;19927;-65
2023/12/27 02:57:04;;;;;;;;;;;21.50;41.50;;;;;;5093326;28;19920;-66
2023/12/27 02:59:30;;;;;;;;;;;21.30;41.70;;;;;;5092154;28;19920;-67
2023/12/27 03:01:55;;;;;;;;;;;21.20;41.90;;;;;;5091099;28;20414;-66
2023/12/27 03:04:21;;;;;;;;;;;21.00;42.00;;;;;;5091847;28;19924;-66
2023/12/27 03:06:46;;;;;;;;;;;20.90;42.30;;;;;;5091784;28;19920;-67
2023/12/27 03:09:12;;;;;;;;;;;20.80;42.40;;;;;;5091737;28;19973;-67
2023/12/27 03:11:38;;;;;;;;;;;20.70;42.60;;;;;;5093069;28;19920;-67
2023/12/27 03:14:04;;;;;;;;;;;20.50;42.80;;;;;;5092165;28;20325;-67
2023/12/27 03:16:29;;;;;;;;;;;20.50;43.00;;;;;;5092947;28;19924;-67
2023/12/27 03:18:55;;;;;;;;;;;20.30;43.10;;;;;;5091819;28;20383;-67
2023/12/27 03:21:20;;;;;;;;;;;20.30;43.40;;;;;;5091745;28;20082;-67
2023/12/27 03:23:47;;;;;;;;;;;20.10;43.40;;;;;;5091923;28;20007;-66
2023/12/27 03:26:13;;;;;;;;;;;20.00;43.60;;;;;;5091829;28;20263;-67
2023/12/27 03:28:38;;;;;;;;;;;19.90;43.80;;;;;;5091446;28;19973;-67
2023/12/27 03:31:04;;;;;;;;;;;19.80;44.00;;;;;;5091287;28;19969;-67
2023/12/27 03:33:29;;;;;;;;;;;19.70;44.00;;;;;;5092879;28;19942;-67
2023/12/27 03:35:55;;;;;;;;;;;19.60;44.20;;;;;;5125717;27;19935;-67
2023/12/27 03:38:20;;;;;;;;;;;19.40;44.30;;;;;;5092655;28;19920;-66
2023/12/27 03:40:46;;;;;;;;;;;19.40;44.50;;;;;;5111352;28;19930;-67
2023/12/27 03:43:11;;;;;;;;;;;19.30;44.60;;;;;;5094983;28;19949;-67
2023/12/27 03:45:37;;;;;;;;;;;19.20;44.80;;;;;;5128695;27;19942;-67
2023/12/27 03:48:09;;;;;;;;;;;19.10;44.90;;;;;;5094888;28;19924;-66
2023/12/27 03:50:35;;;;;;;;;;;19.10;45.10;;;;;;5112954;28;19934;-65
2023/12/27 03:53:00;;;;;;;;;;;19.00;45.20;;;;;;5112830;28;20390;-67
2023/12/27 03:55:26;;;;;;;;;;;18.90;45.20;;;;;;5094901;28;19959;-67
2023/12/27 03:57:52;;;;;;;;;;;18.80;45.30;;;;;;5112758;28;19920;-66
2023/12/27 04:00:18;;;;;;;;;;;18.70;45.40;;;;;;5112661;28;20022;-68
2023/12/27 04:02:43;;;;;;;;;;;18.70;45.60;;;;;;5112620;28;20007;-67
2023/12/27 04:05:09;;;;;;;;;;;18.60;45.70;;;;;;5094739;28;19923;-67
2023/12/27 04:07:34;;;;;;;;;;;18.60;45.80;;;;;;5094708;28;19945;-67
2023/12/27 04:10:00;;;;;;;;;;;18.50;46.00;;;;;;5112675;28;19919;-67
2023/12/27 04:12:26;;;;;;;;;;;18.40;46.00;;;;;;5128618;28;19927;-67
2023/12/27 04:14:51;;;;;;;;;;;18.30;46.10;;;;;;5132946;27;19985;-68
2023/12/27 04:17:17;;;;;;;;;;;18.30;46.20;;;;;;5116677;28;19920;-67
2023/12/27 04:19:42;;;;;;;;;;;18.20;46.40;;;;;;5098421;28;19927;-68
2023/12/27 04:22:08;;;;;;;;;;;18.20;46.50;;;;;;5098260;28;19924;-66
2023/12/27 04:24:34;;;;;;;;;;;18.10;46.50;;;;;;5098619;28;19919;-68
2023/12/27 04:26:59;;;;;;;;;;;18.10;46.60;;;;;;5098257;28;19998;-67
2023/12/27 04:29:25;;;;;;;;;;;18.00;46.70;;;;;;5132485;27;19920;-67
2023/12/27 04:31:50;;;;;;;;;;;18.00;46.90;;;;;;5098148;28;19924;-68
2023/12/27 04:34:16;;;;;;;;;;;17.90;46.90;;;;;;5116517;28;19959;-67
2023/12/27 04:36:42;;;;;;;;;;;17.80;46.90;;;;;;5098363;28;19978;-67
2023/12/27 04:39:07;;;;;;;;;;;17.80;47.10;;;;;;5116213;28;20375;-67
2023/12/27 04:41:33;;;;;;;;;;;17.70;47.20;;;;;;5132093;27;19982;-67
2023/12/27 04:43:59;;;;;;;;;;;18.00;47.10;;;;;;5116346;28;19924;-67
2023/12/27 04:46:24;;;;;;;;;;;18.30;46.70;;;;;;5132373;27;20382;-67
2023/12/27 04:48:50;;;;;;;;;;;18.50;46.20;;;;;;5098152;28;20331;-67
2023/12/27 04:51:15;;;;;;;;;;;18.90;45.50;;;;;;5132313;27;19966;-67
2023/12/27 04:53:44;;;;;;;;;;;19.30;44.80;;;;;;5098053;28;20372;-67
2023/12/27 04:56:10;;;;;;;;;;;19.80;44.00;;;;;;5116371;28;20419;-67
2023/12/27 04:58:36;;;;;;;;;;;20.40;43.10;;;;;;5097913;28;20044;-67
2023/12/27 05:01:03;;;;;;;;;;;21.00;42.10;;;;;;5097611;28;20018;-67
2023/12/27 05:03:29;;;;;;;;;;;21.50;41.10;;;;;;5131612;27;19927;-65
2023/12/27 05:05:54;;;;;;;;;;;22.20;40.20;;;;;;5116001;28;19920;-65
2023/12/27 05:08:20;;;;;;;;;;;22.70;39.30;;;;;;5097517;28;19919;-66
2023/12/27 05:10:46;;;;;;;;;;;23.20;38.50;;;;;;5116023;28;20282;-69
2023/12/27 05:13:11;;;;;;;;;;;23.70;37.80;;;;;;5115704;28;19926;-65
2023/12/27 05:15:37;;;;;;;;;;;24.10;37.20;;;;;;5097688;28;19919;-65
2023/12/27 05:18:03;;;;;;;;;;;24.40;36.80;;;;;;5097442;28;19923;-66
2023/12/27 05:20:28;;;;;;;;;;;24.70;36.40;;;;;;5115440;28;20031;-67
2023/12/27 05:22:54;;;;;;;;;;;24.90;36.10;;;;;;5097506;28;19966;-65
2023/12/27 05:25:23;;;;;;;;;;;25.00;35.90;;;;;;5096314;28;20286;-68
2023/12/27 05:27:48;;;;;;;;;;;25.00;35.70;;;;;;5097371;28;20351;-65
2023/12/27 05:30:14;;;;;;;;;;;25.00;35.80;;;;;;5097394;28;19970;-65
2023/12/27 05:32:40;;;;;;;;;;;24.90;35.80;;;;;;5097393;28;20014;-66
2023/12/27 05:35:05;;;;;;;;;;;24.80;36.00;;;;;;5115061;28;20382;-65
2023/12/27 05:37:31;;;;;;;;;;;24.60;36.20;;;;;;5131121;27;20451;-67
2023/12/27 05:39:56;;;;;;;;;;;24.50;36.50;;;;;;5096552;28;19923;-66
2023/12/27 05:42:23;;;;;;;;;;;24.20;36.60;;;;;;5131002;27;19923;-65
2023/12/27 05:44:48;;;;;;;;;;;24.00;36.90;;;;;;5115097;28;20267;-65
2023/12/27 05:47:14;;;;;;;;;;;23.80;37.20;;;;;;5096856;28;19926;-65
2023/12/27 05:49:39;;;;;;;;;;;23.70;37.50;;;;;;5114883;28;19926;-65
2023/12/27 05:52:05;;;;;;;;;;;23.40;37.70;;;;;;5130956;27;19920;-65
2023/12/27 05:54:30;;;;;;;;;;;23.30;38.10;;;;;;5096557;28;19942;-65
2023/12/27 05:56:56;;;;;;;;;;;23.00;38.30;;;;;;5131030;27;19920;-67
2023/12/27 05:59:21;;;;;;;;;;;22.90;38.70;;;;;;5130651;27;20408;-66
2023/12/27 06:01:47;;;;;;;;;;;22.70;38.90;;;;;;5130830;27;19930;-65
2023/12/27 06:04:14;;;;;;;;;;;22.50;39.10;;;;;;5096357;28;20111;-65
2023/12/27 06:06:40;;;;;;;;;;;22.40;39.30;;;;;;5114625;28;19997;-67
2023/12/27 06:09:05;;;;;;;;;;;22.20;39.50;;;;;;5096487;28;20387;-67
2023/12/27 06:11:31;;;;;;;;;;;22.10;39.70;;;;;;5130453;27;20010;-67
2023/12/27 06:13:56;;;;;;;;;;;21.90;39.90;;;;;;5096250;28;19920;-66
2023/12/27 06:16:22;;;;;;;;;;;21.80;40.10;;;;;;5114502;28;19919;-67
2023/12/27 06:18:47;;;;;;;;;;;21.70;40.30;;;;;;5096463;28;19919;-66
2023/12/27 06:21:13;;;;;;;;;;;21.50;40.50;;;;;;5114120;28;19931;-67
2023/12/27 06:23:39;;;;;;;;;;;21.30;40.60;;;;;;5114371;28;19977;-67
2023/12/27 06:26:05;;;;;;;;;;;21.20;41.70;;;;;;5096462;28;20290;-67
2023/12/27 06:28:31;;;;;;;;;;;21.10;41.10;;;;;;5114333;28;19920;-66
2023/12/27 06:30:56;;;;;;;;;;;21.00;41.30;;;;;;5114102;28;19919;-67
2023/12/27 06:33:22;;;;;;;;;;;20.80;41.40;;;;;;5130039;27;20006;-67
2023/12/27 06:35:47;;;;;;;;;;;20.70;41.50;;;;;;5095969;28;20007;-67
2023/12/27 06:38:13;;;;;;;;;;;20.60;41.70;;;;;;5096123;28;20003;-65
2023/12/27 06:40:38;;;;;;;;;;;20.50;41.80;;;;;;5113572;28;19931;-68
2023/12/27 06:43:04;;;;;;;;;;;20.40;42.00;;;;;;5095700;28;19920;-67
2023/12/27 06:45:29;;;;;;;;;;;20.30;42.20;;;;;;5095895;28;19930;-67
2023/12/27 06:47:55;;;;;;;;;;;20.10;42.30;;;;;;5113929;28;19959;-67
2023/12/27 06:50:20;;;;;;;;;;;20.10;42.50;;;;;;5113902;28;19919;-67
2023/12/27 06:52:46;;;;;;;;;;;20.00;42.70;;;;;;5095663;28;19968;-67
2023/12/27 06:55:11;;;;;;;;;;;19.90;42.80;;;;;;5095432;28;19968;-67
2023/12/27 06:57:37;;;;;;;;;;;19.70;42.90;;;;;;5095314;28;19919;-67
2023/12/27 07:00:03;;;;;;;;;;;19.60;43.00;;;;;;5113511;28;19920;-67
2023/12/27 07:02:28;;;;;;;;;;;19.60;43.20;;;;;;5114045;28;20358;-67
2023/12/27 07:04:54;;;;;;;;;;;19.50;43.20;;;;;;5095559;28;20427;-67
2023/12/27 07:07:19;;;;;;;;;;;19.40;43.30;;;;;;5129261;27;19968;-67
2023/12/27 07:09:45;;;;;;;;;;;19.30;43.50;;;;;;5095203;28;19919;-67
2023/12/27 07:12:12;;;;;;;;;;;19.30;43.70;;;;;;5113572;28;19926;-67
2023/12/27 07:14:38;;;;;;;;;;;19.20;43.70;;;;;;5095078;28;19965;-66
2023/12/27 07:17:04;;;;;;;;;;;19.10;43.80;;;;;;5095474;28;19957;-67
2023/12/27 07:19:29;;;;;;;;;;;19.00;43.90;;;;;;5113206;28;19979;-68
2023/12/27 07:21:55;;;;;;;;;;;19.00;44.10;;;;;;5129178;27;20371;-66
2023/12/27 07:24:22;;;;;;;;;;;18.90;44.10;;;;;;5095153;28;19920;-68
2023/12/27 07:26:48;;;;;;;;;;;18.80;44.30;;;;;;5113069;28;20033;-68
2023/12/27 07:29:13;;;;;;;;;;;18.70;44.30;;;;;;5094880;28;19924;-68
2023/12/27 07:31:39;;;;;;;;;;;18.60;44.40;;;;;;5113145;28;19924;-68
2023/12/27 07:34:04;;;;;;;;;;;18.60;44.60;;;;;;5095179;28;20390;-68
2023/12/27 07:36:30;;;;;;;;;;;18.50;44.70;;;;;;5113403;28;20290;-68
2023/12/27 07:38:55;;;;;;;;;;;18.60;44.80;;;;;;5113204;28;19928;-67
2023/12/27 07:41:21;;;;;;;;;;;18.80;44.60;;;;;;5094926;28;20018;-69
2023/12/27 07:43:46;;;;;;;;;;;19.00;44.20;;;;;;5078489;28;19927;-68
2023/12/27 07:46:12;;;;;;;;;;;19.30;43.80;;;;;;5113023;28;20380;-68
2023/12/27 07:48:37;;;;;;;;;;;19.70;43.20;;;;;;5128553;27;20366;-68
2023/12/27 07:51:03;;;;;;;;;;;20.10;42.60;;;;;;5112838;28;20395;-68
2023/12/27 07:53:29;;;;;;;;;;;20.50;41.70;;;;;;5112773;28;19924;-67
2023/12/27 07:55:54;;;;;;;;;;;21.00;41.80;;;;;;5094837;28;19927;-67
2023/12/27 07:58:20;;;;;;;;;;;21.40;40.20;;;;;;5128855;28;19920;-68
2023/12/27 08:00:46;;;;;;;;;;;21.90;39.60;;;;;;5094483;28;20272;-67
2023/12/27 08:03:11;;;;;;;;;;;22.30;38.80;;;;;;5094416;28;19955;-66
2023/12/27 08:05:37;;;;;;;;;;;22.80;38.10;;;;;;5094799;28;19920;-67
2023/12/27 08:08:03;;;;;;;;;;;23.30;37.50;;;;;;5112563;28;19920;-66
2023/12/27 08:10:29;;;;;;;;;;;23.50;37.00;;;;;;5094927;28;19919;-68
2023/12/27 08:12:54;;;;;;;;;;;23.90;36.60;;;;;;5094349;28;19927;-66
2023/12/27 08:15:20;;;;;;;;;;;24.20;36.20;;;;;;5112542;28;19986;-68
2023/12/27 08:17:45;;;;;;;;;;;24.40;35.90;;;;;;5112692;28;20355;-68
2023/12/27 08:20:11;;;;;;;;;;;24.60;35.60;;;;;;5128284;28;20006;-67
2023/12/27 08:22:37;;;;;;;;;;;24.80;35.30;;;;;;5094659;28;19962;-69
2023/12/27 08:25:05;;;;;;;;;;;25.00;35.10;;;;;;5112405;28;20335;-67
2023/12/27 08:27:31;;;;;;;;;;;25.20;34.90;;;;;;5112512;28;19920;-67
2023/12/27 08:29:56;;;;;;;;;;;25.20;34.70;;;;;;5094160;28;19924;-67
2023/12/27 08:32:22;;;;;;;;;;;25.30;34.80;;;;;;5128693;28;19919;-66
2023/12/27 08:34:49;;;;;;;;;;;25.20;34.80;;;;;;5094435;28;20268;-67
2023/12/27 08:37:15;;;;;;;;;;;25.00;34.80;;;;;;5094253;28;19919;-65
2023/12/27 08:39:40;;;;;;;;;;;24.90;35.10;;;;;;5112050;28;19931;-67
2023/12/27 08:42:06;;;;;;;;;;;24.70;35.30;;;;;;5094091;28;20436;-66
2023/12/27 08:44:31;;;;;;;;;;;24.50;35.60;;;;;;5094085;28;20374;-66
2023/12/27 08:46:57;;;;;;;;;;;24.20;35.90;;;;;;5094124;28;19919;-67
2023/12/27 08:49:24;;;;;;;;;;;23.90;36.30;;;;;;5112337;28;19920;-66
2023/12/27 08:51:50;;;;;;;;;;;23.70;36.70;;;;;;5094359;28;19926;-66
2023/12/27 08:54:16;;;;;;;;;;;23.40;37.80;;;;;;5093995;28;20002;-66
2023/12/27 08:56:45;;;;;;;;;;;23.20;37.30;;;;;;5094218;28;19924;-65
2023/12/27 08:59:10;;;;;;;;;;;23.00;37.60;;;;;;5094006;28;19920;-67
2023/12/27 09:01:42;;;;;;;;;;;22.70;37.90;;;;;;5097393;28;19930;-66
2023/12/27 09:04:07;;;;;;;;;;;22.60;38.30;;;;;;5097642;28;19927;-68
2023/12/27 09:06:33;;;;;;;;;;;22.40;38.40;;;;;;5115813;28;19919;-66
2023/12/27 09:09:04;;;;;;;;;;;22.30;38.70;;;;;;5097783;28;19958;-67
2023/12/27 09:11:29;;;;;;;;;;;22.20;38.90;;;;;;5097707;28;20338;-67
2023/12/27 09:13:55;;;;;;;;;;;22.10;39.00;;;;;;5131945;27;20212;-67
2023/12/27 09:16:20;;;;;;;;;;;22.00;39.20;;;;;;5131959;27;20476;-66
2023/12/27 09:18:46;;;;;;;;;;;21.90;39.30;;;;;;5097581;28;19920;-66
2023/12/27 09:21:13;;;;;;;;;;;21.70;39.30;;;;;;5115445;28;19924;-67
2023/12/27 09:23:41;;;;;;;;;;;21.70;39.50;;;;;;5097571;28;20014;-68
2023/12/27 09:26:10;;;;;;;;;;;21.60;39.70;;;;;;5097378;28;19958;-67
2023/12/27 09:28:36;;;;;;;;;;;21.50;39.80;;;;;;5131294;27;19920;-68
2023/12/27 09:31:02;;;;;;;;;;;21.30;39.90;;;;;;5097015;28;19926;-67
2023/12/27 09:33:27;;;;;;;;;;;21.30;40.10;;;;;;5097438;28;19927;-67
2023/12/27 09:35:54;;;;;;;;;;;21.10;40.20;;;;;;5131106;27;20222;-67
2023/12/27 09:38:19;;;;;;;;;;;21.00;40.40;;;;;;5097393;28;19989;-67
2023/12/27 09:40:45;;;;;;;;;;;20.90;40.60;;;;;;5096600;28;20438;-67
2023/12/27 09:43:11;;;;;;;;;;;20.80;40.70;;;;;;5096697;28;19977;-68
2023/12/27 09:45:37;;;;;;;;;;;20.70;40.80;;;;;;5097162;28;20389;-67
2023/12/27 09:48:04;;;;;;;;;;;20.60;41.70;;;;;;5131198;27;20006;-67
2023/12/27 09:50:30;;;;;;;;;;;20.50;41.10;;;;;;5131179;27;19924;-67
2023/12/27 09:52:56;;;;;;;;;;;20.40;41.30;;;;;;5096559;28;19919;-67
2023/12/27 09:55:22;;;;;;;;;;;20.30;41.60;;;;;;5131007;27;19968;-66
2023/12/27 09:57:51;;;;;;;;;;;20.20;41.70;;;;;;5115651;28;19967;-67
2023/12/27 10:00:17;;;;;;;;;;;20.10;41.80;;;;;;5114858;28;20018;-67
2023/12/27 10:02:44;;;;;;;;;;;20.00;41.90;;;;;;5114924;28;19964;-67
2023/12/27 10:07:53;;;;;;;;;;;19.80;42.20;;;;;;5111793;27;19946;-68
2023/12/27 10:10:19;;;;;;;;;;;19.70;42.30;;;;;;5110229;28;20371;-68
2023/12/27 10:12:45;;;;;;;;;;;19.60;42.40;;;;;;5108850;28;20414;-68
2023/12/27 10:15:12;;;;;;;;;;;19.50;42.50;;;;;;5109222;28;20014;-68
2023/12/27 10:17:41;;;;;;;;;;;19.50;42.70;;;;;;5109128;28;20342;-68
2023/12/27 10:20:08;;;;;;;;;;;19.40;42.80;;;;;;5108760;28;19969;-69
2023/12/27 10:22:33;;;;;;;;;;;19.30;43.00;;;;;;5108762;28;19920;-69
2023/12/27 10:24:59;;;;;;;;;;;19.20;43.10;;;;;;5108648;28;19930;-68
2023/12/27 10:27:28;;;;;;;;;;;19.10;43.30;;;;;;5108626;28;19928;-67
2023/12/27 10:29:53;;;;;;;;;;;19.00;43.40;;;;;;5108577;28;19920;-67
2023/12/27 10:32:19;;;;;;;;;;;19.00;43.60;;;;;;5109871;28;19920;-67
2023/12/27 10:34:45;;;;;;;;;;;18.90;43.70;;;;;;5109743;28;20015;-67
2023/12/27 10:37:11;;;;;;;;;;;18.80;43.80;;;;;;5109844;28;19966;-67
2023/12/27 10:39:43;;;;;;;;;;;18.90;44.00;;;;;;5108470;28;20359;-67
2023/12/27 10:42:13;;;;;;;;;;;19.30;43.70;;;;;;5109582;28;19920;-68
2023/12/27 10:44:38;;;;;;;;;;;19.60;43.20;;;;;;5109690;28;19950;-67
2023/12/27 10:47:08;;;;;;;;;;;20.20;42.30;;;;;;5108281;28;20398;-67
2023/12/27 10:49:35;;;;;;;;;;;20.90;41.40;;;;;;5109450;28;19927;-68
2023/12/27 10:52:01;;;;;;;;;;;21.60;40.30;;;;;;5109418;28;19920;-67
2023/12/27 10:54:27;;;;;;;;;;;22.20;39.10;;;;;;5109304;28;19935;-67
2023/12/27 10:56:53;;;;;;;;;;;22.90;38.30;;;;;;5109593;28;19994;-67
2023/12/27 10:59:18;;;;;;;;;;;23.40;37.50;;;;;;5107967;28;19920;-67
2023/12/27 11:01:48;;;;;;;;;;;23.80;36.70;;;;;;5109381;28;19942;-67
2023/12/27 11:04:15;;;;;;;;;;;24.20;36.20;;;;;;5109611;28;20251;-67
2023/12/27 11:06:42;;;;;;;;;;;24.60;35.60;;;;;;5110754;28;19924;-67
2023/12/27 11:09:09;;;;;;;;;;;24.90;35.20;;;;;;5111438;28;19924;-67
2023/12/27 11:11:38;;;;;;;;;;;25.10;35.00;;;;;;5111251;28;19926;-67
2023/12/27 11:14:05;;;;;;;;;;;25.30;34.80;;;;;;5111155;28;19924;-67
2023/12/27 11:16:32;;;;;;;;;;;25.30;34.70;;;;;;5111546;28;19923;-68
2023/12/27 11:18:59;;;;;;;;;;;25.40;34.70;;;;;;5117033;28;19957;-67
2023/12/27 11:21:24;;;;;;;;;;;25.30;34.80;;;;;;5097358;28;19920;-68
2023/12/27 11:23:50;;;;;;;;;;;25.10;34.80;;;;;;5097353;28;19968;-67
2023/12/27 11:26:16;;;;;;;;;;;24.90;35.10;;;;;;5097448;28;19928;-67
2023/12/27 11:28:42;;;;;;;;;;;24.70;35.40;;;;;;5097332;28;19927;-68
2023/12/27 11:31:08;;;;;;;;;;;24.40;35.70;;;;;;5115454;28;19919;-67
2023/12/27 11:33:34;;;;;;;;;;;24.10;36.00;;;;;;5097650;28;19927;-67
2023/12/27 11:35:59;;;;;;;;;;;23.90;36.50;;;;;;5097171;28;19919;-67
2023/12/27 11:38:25;;;;;;;;;;;23.60;36.70;;;;;;5097093;28;19969;-67
2023/12/27 11:40:56;;;;;;;;;;;23.30;37.10;;;;;;5131469;27;19920;-67
2023/12/27 11:43:23;;;;;;;;;;;23.10;37.50;;;;;;5097096;28;20166;-67
2023/12/27 11:46:06;;;;;;;;;;;22.80;37.90;;;;;;5097232;28;19930;-67
2023/12/27 11:48:33;;;;;;;;;;;22.60;38.20;;;;;;5097609;28;19920;-67
2023/12/27 11:51:00;;;;;;;;;;;22.30;38.50;;;;;;5096725;28;19919;-67
2023/12/27 11:53:26;;;;;;;;;;;22.20;38.90;;;;;;5115330;28;20370;-67
2023/12/27 11:55:52;;;;;;;;;;;22.00;39.30;;;;;;5130896;27;20021;-67
2023/12/27 11:58:35;;;;;;;;;;;21.80;39.60;;;;;;5097095;28;19927;-67
2023/12/27 12:01:22;;;;;;;;;;;21.60;39.90;;;;;;5096619;28;19920;-67
2023/12/27 12:03:52;;;;;;;;;;;21.40;40.20;;;;;;5096833;28;19961;-67
2023/12/27 12:06:28;;;;;;;;;;;21.30;40.40;;;;;;5096153;28;19931;-67
2023/12/27 12:08:54;;;;;;;;;;;21.10;40.60;;;;;;5096807;28;20270;-69
2023/12/27 12:11:21;;;;;;;;;;;21.10;40.80;;;;;;5096450;28;19927;-67
2023/12/27 12:13:47;;;;;;;;;;;21.00;41.00;;;;;;5114782;28;19942;-67
2023/12/27 12:16:13;;;;;;;;;;;20.80;41.10;;;;;;5096210;28;20368;-68
2023/12/27 12:18:39;;;;;;;;;;;20.80;41.30;;;;;;5096697;28;20010;-67
2023/12/27 12:21:05;;;;;;;;;;;20.70;41.40;;;;;;5096338;28;19924;-67
2023/12/27 12:23:31;;;;;;;;;;;20.60;41.40;;;;;;5114543;28;19970;-67
2023/12/27 12:26:00;;;;;;;;;;;20.60;41.60;;;;;;5114527;28;19928;-67
2023/12/27 12:28:27;;;;;;;;;;;20.50;41.70;;;;;;5096230;28;19923;-67
2023/12/27 12:30:56;;;;;;;;;;;20.50;41.80;;;;;;5095104;28;19920;-67
2023/12/27 12:33:23;;;;;;;;;;;20.40;41.90;;;;;;5130606;27;19920;-67
2023/12/27 12:35:49;;;;;;;;;;;20.30;42.00;;;;;;5114467;28;19920;-67
2023/12/27 12:38:17;;;;;;;;;;;20.30;42.10;;;;;;5130322;27;19970;-67
2023/12/27 12:40:44;;;;;;;;;;;20.20;42.30;;;;;;5095857;28;19920;-67
2023/12/27 12:43:09;;;;;;;;;;;20.10;42.40;;;;;;5095822;28;20010;-67
2023/12/27 12:45:35;;;;;;;;;;;20.00;43.20;;;;;;5113951;28;19971;-67
2023/12/27 12:48:01;;;;;;;;;;;20.00;42.70;;;;;;5096054;28;19920;-67
2023/12/27 12:50:27;;;;;;;;;;;19.80;42.80;;;;;;5113959;28;19920;-67
2023/12/27 12:52:52;;;;;;;;;;;19.80;43.00;;;;;;5095900;28;19920;-67
2023/12/27 12:55:19;;;;;;;;;;;19.70;43.20;;;;;;5113972;28;20295;-68
2023/12/27 12:57:45;;;;;;;;;;;19.60;43.30;;;;;;5095766;28;19931;-68
2023/12/27 13:00:11;;;;;;;;;;;19.50;43.40;;;;;;5113785;28;19919;-67
2023/12/27 13:02:37;;;;;;;;;;;19.50;43.60;;;;;;5095421;28;19920;-67
2023/12/27 13:05:03;;;;;;;;;;;19.40;43.80;;;;;;5095364;28;20404;-67
2023/12/27 13:07:29;;;;;;;;;;;19.30;43.80;;;;;;5113371;28;19923;-68
2023/12/27 13:09:58;;;;;;;;;;;19.20;44.00;;;;;;5095310;28;19923;-68
2023/12/27 13:12:24;;;;;;;;;;;19.20;44.10;;;;;;5095707;28;19920;-68
2023/12/27 13:14:50;;;;;;;;;;;19.10;44.30;;;;;;5113842;28;19920;-68
2023/12/27 13:17:16;;;;;;;;;;;19.10;44.50;;;;;;5095535;28;20393;-68
2023/12/27 13:19:41;;;;;;;;;;;19.00;44.60;;;;;;5095116;28;19959;-68
2023/12/27 13:22:09;;;;;;;;;;;19.00;44.70;;;;;;5113550;28;20003;-68
2023/12/27 13:24:34;;;;;;;;;;;18.90;44.80;;;;;;5095342;28;20359;-68
2023/12/27 13:27:03;;;;;;;;;;;18.80;44.90;;;;;;5113154;28;20011;-68
2023/12/27 13:29:28;;;;;;;;;;;18.70;45.10;;;;;;5113206;28;20401;-68
2023/12/27 13:31:54;;;;;;;;;;;18.70;45.20;;;;;;5094933;28;20007;-69
2023/12/27 13:34:19;;;;;;;;;;;18.60;45.30;;;;;;5095182;28;20010;-68
2023/12/27 13:36:45;;;;;;;;;;;18.60;45.40;;;;;;5094910;28;19924;-70
2023/12/27 13:39:11;;;;;;;;;;;18.60;45.60;;;;;;5095072;28;19920;-70
2023/12/27 13:41:37;;;;;;;;;;;18.50;45.70;;;;;;5112888;28;19919;-70
2023/12/27 13:44:03;;;;;;;;;;;18.50;45.90;;;;;;5113072;28;19920;-70
2023/12/27 13:46:29;;;;;;;;;;;18.40;45.90;;;;;;5112948;28;19931;-70
2023/12/27 13:48:54;;;;;;;;;;;18.30;46.00;;;;;;5095140;28;20378;-70
2023/12/27 13:51:20;;;;;;;;;;;18.30;46.20;;;;;;5094958;28;20019;-70
2023/12/27 13:53:46;;;;;;;;;;;18.20;46.30;;;;;;5112956;28;19934;-70
2023/12/27 13:56:11;;;;;;;;;;;18.20;46.40;;;;;;5112862;28;19926;-69
2023/12/27 13:58:37;;;;;;;;;;;18.10;46.50;;;;;;5094973;28;20319;-70
2023/12/27 14:01:04;;;;;;;;;;;18.10;46.70;;;;;;5094523;28;19926;-70
2023/12/27 14:03:31;;;;;;;;;;;18.40;46.80;;;;;;5094949;28;19920;-70
2023/12/27 14:05:57;;;;;;;;;;;18.70;46.20;;;;;;5094383;28;19989;-70
2023/12/27 14:08:23;;;;;;;;;;;19.00;45.70;;;;;;5112761;28;20374;-70
2023/12/27 14:10:48;;;;;;;;;;;19.50;45.00;;;;;;5094395;28;19920;-70
2023/12/27 14:13:14;;;;;;;;;;;20.10;44.20;;;;;;5113050;28;19920;-70